LAV1069 LEBB-LEPA
Flight info
| Callsign | LAV1069 |
|---|---|
| Flight time | N/A |
| Altitude | 32000 |
| Route | PPN M601 TURPU/N0455F340 M601 BCN/N0456F330 Z167 LORES |
| Aircraft | B738/M-SDE2E3FGHIRWXY/LB1 |
Departure
| Time | 2026-04-28 14:11 |
|---|---|
| Airport | Bilbao Airport (LEBB) |
Arrival
| Time | N/A |
|---|---|
| Airport | Palma de Mallorca Airport (LEPA) |
| Time | Latitude | Longitude | Altitude | Speed | Heading |
|---|---|---|---|---|---|
| 2026-04-28 13:41 | 43.30309 | -2.90469 | 131 ft | 0 kts | 56° |
| 2026-04-28 14:03 | 43.30310 | -2.90467 | 131 ft | 1 kts | 65° |
| 2026-04-28 14:03 | 43.30305 | -2.90459 | 131 ft | 1 kts | 129° |
| 2026-04-28 14:03 | 43.30294 | -2.90465 | 131 ft | 2 kts | 231° |
| 2026-04-28 14:03 | 43.30281 | -2.90495 | 131 ft | 5 kts | 238° |
| 2026-04-28 14:04 | 43.30249 | -2.90521 | 131 ft | 7 kts | 176° |
| 2026-04-28 14:04 | 43.30198 | -2.90543 | 131 ft | 9 kts | 209° |
| 2026-04-28 14:04 | 43.30135 | -2.90578 | 131 ft | 11 kts | 172° |
| 2026-04-28 14:04 | 43.30088 | -2.90495 | 131 ft | 13 kts | 116° |
| 2026-04-28 14:05 | 43.30046 | -2.90378 | 131 ft | 15 kts | 116° |
| 2026-04-28 14:05 | 43.29995 | -2.90240 | 131 ft | 18 kts | 115° |
| 2026-04-28 14:05 | 43.29932 | -2.90067 | 131 ft | 22 kts | 116° |
| 2026-04-28 14:05 | 43.29861 | -2.89874 | 131 ft | 22 kts | 117° |
| 2026-04-28 14:06 | 43.29797 | -2.89701 | 131 ft | 19 kts | 117° |
| 2026-04-28 14:06 | 43.29732 | -2.89585 | 131 ft | 12 kts | 174° |
| 2026-04-28 14:06 | 43.29715 | -2.89589 | 131 ft | 0 kts | 201° |
| 2026-04-28 14:07 | 43.29714 | -2.89590 | 131 ft | 1 kts | 201° |
| 2026-04-28 14:07 | 43.29686 | -2.89628 | 131 ft | 11 kts | 232° |
| 2026-04-28 14:07 | 43.29636 | -2.89721 | 126 ft | 13 kts | 235° |
| 2026-04-28 14:08 | 43.29651 | -2.89809 | 130 ft | 9 kts | 300° |
| 2026-04-28 14:08 | 43.29655 | -2.89818 | 126 ft | 0 kts | 298° |
| 2026-04-28 14:10 | 43.29681 | -2.89891 | 130 ft | 31 kts | 297° |
| 2026-04-28 14:10 | 43.29889 | -2.90456 | 127 ft | 100 kts | 297° |
| 2026-04-28 14:10 | 43.30284 | -2.91545 | 149 ft | 152 kts | 296° |
| 2026-04-28 14:11 | 43.30763 | -2.92899 | 590 ft | 163 kts | 294° |
| 2026-04-28 14:11 | 43.31265 | -2.94352 | 1121 ft | 174 kts | 296° |
| 2026-04-28 14:11 | 43.31809 | -2.95844 | 1813 ft | 175 kts | 297° |
| 2026-04-28 14:11 | 43.32603 | -2.97196 | 2330 ft | 186 kts | 316° |
| 2026-04-28 14:12 | 43.33537 | -2.98399 | 3089 ft | 184 kts | 316° |
| 2026-04-28 14:12 | 43.34545 | -2.99711 | 3182 ft | 215 kts | 318° |
| 2026-04-28 14:12 | 43.35753 | -3.00997 | 3465 ft | 225 kts | 328° |
| 2026-04-28 14:12 | 43.37119 | -3.01889 | 4210 ft | 210 kts | 344° |
| 2026-04-28 14:13 | 43.38540 | -3.02149 | 4761 ft | 210 kts | 4° |
| 2026-04-28 14:13 | 43.40010 | -3.01676 | 4837 ft | 229 kts | 25° |
| 2026-04-28 14:13 | 43.41356 | -3.00386 | 5020 ft | 240 kts | 47° |
| 2026-04-28 14:13 | 43.42216 | -2.98496 | 5636 ft | 229 kts | 72° |
| 2026-04-28 14:14 | 43.42403 | -2.96387 | 6142 ft | 223 kts | 99° |
| 2026-04-28 14:14 | 43.41869 | -2.94349 | 6294 ft | 235 kts | 125° |
| 2026-04-28 14:14 | 43.40674 | -2.92775 | 6491 ft | 241 kts | 151° |
| 2026-04-28 14:14 | 43.40380 | -2.92562 | 6575 ft | 240 kts | 156° |